sensor_id;sensor_type;location;lat;lon;timestamp;pressure;altitude;pressure_sealevel;temperature;humidity
6345;BME280;3205;42.666;23.264;2024-01-30T00:00:05;96329.50;;;-0.08;100.00
6345;BME280;3205;42.666;23.264;2024-01-30T00:02:32;96338.19;;;-0.14;100.00
6345;BME280;3205;42.666;23.264;2024-01-30T00:04:59;96340.44;;;-0.18;100.00
6345;BME280;3205;42.666;23.264;2024-01-30T00:07:25;96343.03;;;-0.18;100.00
6345;BME280;3205;42.666;23.264;2024-01-30T00:09:51;96339.50;;;-0.23;100.00
6345;BME280;3205;42.666;23.264;2024-01-30T00:12:17;96334.47;;;-0.18;100.00
6345;BME280;3205;42.666;23.264;2024-01-30T00:14:44;96336.41;;;-0.14;100.00
6345;BME280;3205;42.666;23.264;2024-01-30T00:17:10;96339.66;;;-0.18;100.00
6345;BME280;3205;42.666;23.264;2024-01-30T00:19:37;96344.03;;;-0.19;100.00
6345;BME280;3205;42.666;23.264;2024-01-30T00:22:03;96347.88;;;-0.21;100.00
6345;BME280;3205;42.666;23.264;2024-01-30T00:24:30;96350.34;;;-0.26;100.00
6345;BME280;3205;42.666;23.264;2024-01-30T00:26:56;96346.56;;;-0.30;100.00
6345;BME280;3205;42.666;23.264;2024-01-30T00:29:22;96341.19;;;-0.29;100.00
6345;BME280;3205;42.666;23.264;2024-01-30T00:31:52;96342.84;;;-0.34;100.00
6345;BME280;3205;42.666;23.264;2024-01-30T00:34:18;96340.38;;;-0.47;100.00
6345;BME280;3205;42.666;23.264;2024-01-30T00:36:45;96334.84;;;-0.51;100.00
6345;BME280;3205;42.666;23.264;2024-01-30T00:39:11;96339.94;;;-0.62;100.00
6345;BME280;3205;42.666;23.264;2024-01-30T00:41:38;96342.31;;;-0.61;100.00
6345;BME280;3205;42.666;23.264;2024-01-30T00:44:04;96338.28;;;-0.57;100.00
6345;BME280;3205;42.666;23.264;2024-01-30T00:46:30;96339.31;;;-0.58;100.00
6345;BME280;3205;42.666;23.264;2024-01-30T00:48:57;96337.50;;;-0.39;100.00
6345;BME280;3205;42.666;23.264;2024-01-30T00:51:23;96343.72;;;-0.40;100.00
6345;BME280;3205;42.666;23.264;2024-01-30T00:53:50;96342.34;;;-0.43;100.00
6345;BME280;3205;42.666;23.264;2024-01-30T00:56:16;96332.38;;;-0.46;100.00
6345;BME280;3205;42.666;23.264;2024-01-30T00:58:44;96337.38;;;-0.44;100.00
6345;BME280;3205;42.666;23.264;2024-01-30T01:01:10;96337.50;;;-0.39;100.00
6345;BME280;3205;42.666;23.264;2024-01-30T01:03:37;96335.75;;;-0.27;100.00
6345;BME280;3205;42.666;23.264;2024-01-30T01:06:03;96340.78;;;-0.14;100.00
6345;BME280;3205;42.666;23.264;2024-01-30T01:08:30;96336.91;;;-0.23;100.00
6345;BME280;3205;42.666;23.264;2024-01-30T01:10:57;96336.75;;;-0.28;100.00
6345;BME280;3205;42.666;23.264;2024-01-30T01:13:25;96329.06;;;-0.35;100.00
6345;BME280;3205;42.666;23.264;2024-01-30T01:15:51;96335.81;;;-0.34;100.00
6345;BME280;3205;42.666;23.264;2024-01-30T01:18:17;96332.81;;;-0.49;100.00
6345;BME280;3205;42.666;23.264;2024-01-30T01:20:43;96336.78;;;-0.46;100.00
6345;BME280;3205;42.666;23.264;2024-01-30T01:23:10;96324.88;;;-0.54;100.00
6345;BME280;3205;42.666;23.264;2024-01-30T01:25:36;96336.28;;;-0.37;100.00
6345;BME280;3205;42.666;23.264;2024-01-30T01:28:03;96330.34;;;-0.44;100.00
6345;BME280;3205;42.666;23.264;2024-01-30T01:30:30;96333.69;;;-0.37;100.00
6345;BME280;3205;42.666;23.264;2024-01-30T01:32:56;96339.34;;;-0.28;100.00
6345;BME280;3205;42.666;23.264;2024-01-30T01:35:25;96336.63;;;-0.33;100.00
6345;BME280;3205;42.666;23.264;2024-01-30T01:37:52;96348.09;;;-0.23;100.00
6345;BME280;3205;42.666;23.264;2024-01-30T01:40:22;96339.66;;;-0.18;100.00
6345;BME280;3205;42.666;23.264;2024-01-30T01:42:49;96333.22;;;-0.16;100.00
6345;BME280;3205;42.666;23.264;2024-01-30T01:45:17;96340.31;;;-0.23;100.00
6345;BME280;3205;42.666;23.264;2024-01-30T01:47:44;96338.72;;;-0.24;100.00
6345;BME280;3205;42.666;23.264;2024-01-30T01:50:12;96337.13;;;-0.25;100.00
6345;BME280;3205;42.666;23.264;2024-01-30T01:52:40;96334.75;;;-0.26;100.00
6345;BME280;3205;42.666;23.264;2024-01-30T01:55:07;96337.88;;;-0.36;100.00
6345;BME280;3205;42.666;23.264;2024-01-30T01:57:34;96337.56;;;-0.46;100.00
6345;BME280;3205;42.666;23.264;2024-01-30T02:00:00;96338.06;;;-0.37;100.00
6345;BME280;3205;42.666;23.264;2024-01-30T02:02:30;96343.25;;;-0.37;100.00
6345;BME280;3205;42.666;23.264;2024-01-30T02:04:57;96345.44;;;-0.34;100.00
6345;BME280;3205;42.666;23.264;2024-01-30T02:07:23;96337.78;;;-0.47;100.00
6345;BME280;3205;42.666;23.264;2024-01-30T02:09:50;96350.78;;;-0.47;100.00
6345;BME280;3205;42.666;23.264;2024-01-30T02:12:16;96344.06;;;-0.37;100.00
6345;BME280;3205;42.666;23.264;2024-01-30T02:14:48;96341.91;;;-0.22;100.00
6345;BME280;3205;42.666;23.264;2024-01-30T02:17:15;96347.50;;;-0.25;100.00
6345;BME280;3205;42.666;23.264;2024-01-30T02:19:42;96349.41;;;-0.14;100.00
6345;BME280;3205;42.666;23.264;2024-01-30T02:22:09;96349.41;;;-0.14;100.00
6345;BME280;3205;42.666;23.264;2024-01-30T02:24:36;96342.09;;;-0.23;100.00
6345;BME280;3205;42.666;23.264;2024-01-30T02:27:02;96338.66;;;-0.17;100.00
6345;BME280;3205;42.666;23.264;2024-01-30T02:29:29;96341.66;;;-0.20;100.00
6345;BME280;3205;42.666;23.264;2024-01-30T02:31:55;96341.72;;;-0.09;100.00
6345;BME280;3205;42.666;23.264;2024-01-30T02:34:21;96334.34;;;-0.12;100.00
6345;BME280;3205;42.666;23.264;2024-01-30T02:36:48;96330.81;;;0.00;100.00
6345;BME280;3205;42.666;23.264;2024-01-30T02:39:14;96331.91;;;0.22;100.00
6345;BME280;3205;42.666;23.264;2024-01-30T02:41:41;96336.66;;;0.25;100.00
6345;BME280;3205;42.666;23.264;2024-01-30T02:44:07;96345.00;;;0.16;100.00
6345;BME280;3205;42.666;23.264;2024-01-30T02:46:33;96339.75;;;0.04;100.00
6345;BME280;3205;42.666;23.264;2024-01-30T02:48:59;96340.44;;;0.11;100.00
6345;BME280;3205;42.666;23.264;2024-01-30T02:51:26;96335.28;;;-0.06;100.00
6345;BME280;3205;42.666;23.264;2024-01-30T02:53:52;96339.31;;;0.07;100.00
6345;BME280;3205;42.666;23.264;2024-01-30T02:56:19;96337.66;;;0.13;100.00
6345;BME280;3205;42.666;23.264;2024-01-30T02:58:45;96340.91;;;0.08;100.00
6345;BME280;3205;42.666;23.264;2024-01-30T03:01:11;96341.63;;;-0.03;100.00
6345;BME280;3205;42.666;23.264;2024-01-30T03:03:38;96342.63;;;0.14;100.00
6345;BME280;3205;42.666;23.264;2024-01-30T03:06:06;96333.66;;;0.10;100.00
6345;BME280;3205;42.666;23.264;2024-01-30T03:08:32;96331.28;;;0.09;100.00
6345;BME280;3205;42.666;23.264;2024-01-30T03:11:00;96324.59;;;0.01;100.00
6345;BME280;3205;42.666;23.264;2024-01-30T03:13:27;96333.00;;;0.15;100.00
6345;BME280;3205;42.666;23.264;2024-01-30T03:15:54;96335.00;;;0.01;100.00
6345;BME280;3205;42.666;23.264;2024-01-30T03:18:20;96334.53;;;0.04;100.00
6345;BME280;3205;42.666;23.264;2024-01-30T03:20:46;96333.09;;;0.08;100.00
6345;BME280;3205;42.666;23.264;2024-01-30T03:23:13;96324.72;;;0.06;100.00
6345;BME280;3205;42.666;23.264;2024-01-30T03:25:39;96331.38;;;0.02;100.00
6345;BME280;3205;42.666;23.264;2024-01-30T03:28:05;96328.56;;;0.04;100.00
6345;BME280;3205;42.666;23.264;2024-01-30T03:30:34;96330.97;;;0.17;100.00
6345;BME280;3205;42.666;23.264;2024-01-30T03:33:00;96324.84;;;0.11;100.00
6345;BME280;3205;42.666;23.264;2024-01-30T03:35:26;96319.31;;;0.08;100.00
6345;BME280;3205;42.666;23.264;2024-01-30T03:37:52;96321.34;;;0.06;100.00
6345;BME280;3205;42.666;23.264;2024-01-30T03:40:19;96322.41;;;0.16;100.00
6345;BME280;3205;42.666;23.264;2024-01-30T03:42:45;96322.91;;;0.07;100.00
6345;BME280;3205;42.666;23.264;2024-01-30T03:45:12;96334.19;;;0.01;100.00
6345;BME280;3205;42.666;23.264;2024-01-30T03:47:39;96315.91;;;0.07;100.00
6345;BME280;3205;42.666;23.264;2024-01-30T03:50:05;96321.91;;;0.08;100.00
6345;BME280;3205;42.666;23.264;2024-01-30T03:52:32;96316.63;;;0.14;100.00
6345;BME280;3205;42.666;23.264;2024-01-30T03:54:58;96320.31;;;0.07;100.00
6345;BME280;3205;42.666;23.264;2024-01-30T03:57:24;96314.59;;;0.16;100.00
6345;BME280;3205;42.666;23.264;2024-01-30T03:59:51;96323.25;;;0.10;100.00
6345;BME280;3205;42.666;23.264;2024-01-30T04:02:17;96317.72;;;0.07;100.00
6345;BME280;3205;42.666;23.264;2024-01-30T04:04:44;96311.31;;;0.09;100.00
6345;BME280;3205;42.666;23.264;2024-01-30T04:07:10;96315.25;;;0.12;100.00
6345;BME280;3205;42.666;23.264;2024-01-30T04:09:38;96318.03;;;-0.01;100.00
6345;BME280;3205;42.666;23.264;2024-01-30T04:12:04;96312.69;;;-0.06;100.00
6345;BME280;3205;42.666;23.264;2024-01-30T04:14:31;96311.03;;;-0.01;100.00
6345;BME280;3205;42.666;23.264;2024-01-30T04:16:57;96315.09;;;-0.04;100.00
6345;BME280;3205;42.666;23.264;2024-01-30T04:19:23;96311.69;;;-0.05;100.00
6345;BME280;3205;42.666;23.264;2024-01-30T04:21:50;96319.06;;;-0.02;100.00
6345;BME280;3205;42.666;23.264;2024-01-30T04:24:17;96314.28;;;-0.05;100.00
6345;BME280;3205;42.666;23.264;2024-01-30T04:26:44;96312.09;;;0.10;100.00
6345;BME280;3205;42.666;23.264;2024-01-30T04:29:10;96314.31;;;0.06;100.00
6345;BME280;3205;42.666;23.264;2024-01-30T04:31:36;96329.44;;;-0.02;100.00
6345;BME280;3205;42.666;23.264;2024-01-30T04:34:03;96326.56;;;-0.12;100.00
6345;BME280;3205;42.666;23.264;2024-01-30T04:36:29;96319.84;;;-0.02;100.00
6345;BME280;3205;42.666;23.264;2024-01-30T04:38:56;96322.22;;;0.00;100.00
6345;BME280;3205;42.666;23.264;2024-01-30T04:41:23;96323.72;;;0.07;100.00
6345;BME280;3205;42.666;23.264;2024-01-30T04:43:49;96330.59;;;0.02;100.00
6345;BME280;3205;42.666;23.264;2024-01-30T04:46:18;96320.00;;;0.15;100.00
6345;BME280;3205;42.666;23.264;2024-01-30T04:48:44;96325.25;;;-0.03;100.00
6345;BME280;3205;42.666;23.264;2024-01-30T04:51:10;96330.16;;;0.05;100.00
6345;BME280;3205;42.666;23.264;2024-01-30T04:53:37;96329.56;;;0.03;100.00
6345;BME280;3205;42.666;23.264;2024-01-30T04:56:06;96337.91;;;-0.06;100.00
6345;BME280;3205;42.666;23.264;2024-01-30T04:58:32;96340.72;;;-0.08;100.00
6345;BME280;3205;42.666;23.264;2024-01-30T05:00:58;96341.97;;;-0.10;100.00
6345;BME280;3205;42.666;23.264;2024-01-30T05:03:25;96349.94;;;-0.12;100.00
6345;BME280;3205;42.666;23.264;2024-01-30T05:05:51;96350.75;;;-0.11;100.00
6345;BME280;3205;42.666;23.264;2024-01-30T05:08:17;96347.44;;;-0.18;100.00
6345;BME280;3205;42.666;23.264;2024-01-30T05:10:43;96348.59;;;-0.14;100.00
6345;BME280;3205;42.666;23.264;2024-01-30T05:13:10;96345.22;;;-0.15;100.00
6345;BME280;3205;42.666;23.264;2024-01-30T05:15:39;96356.84;;;-0.17;100.00
6345;BME280;3205;42.666;23.264;2024-01-30T05:18:05;96353.06;;;-0.21;100.00
6345;BME280;3205;42.666;23.264;2024-01-30T05:20:31;96358.13;;;-0.26;100.00
6345;BME280;3205;42.666;23.264;2024-01-30T05:22:58;96356.47;;;-0.39;100.00
6345;BME280;3205;42.666;23.264;2024-01-30T05:25:24;96360.88;;;-0.39;100.00
6345;BME280;3205;42.666;23.264;2024-01-30T05:27:50;96361.75;;;-0.45;100.00
6345;BME280;3205;42.666;23.264;2024-01-30T05:30:20;96357.56;;;-0.46;100.00
6345;BME280;3205;42.666;23.264;2024-01-30T05:32:46;96360.56;;;-0.49;100.00
6345;BME280;3205;42.666;23.264;2024-01-30T05:35:12;96355.88;;;-0.59;100.00
6345;BME280;3205;42.666;23.264;2024-01-30T05:37:39;96349.91;;;-0.59;100.00
6345;BME280;3205;42.666;23.264;2024-01-30T05:40:07;96355.09;;;-0.59;100.00
6345;BME280;3205;42.666;23.264;2024-01-30T05:42:33;96357.03;;;-0.73;100.00
6345;BME280;3205;42.666;23.264;2024-01-30T05:45:00;96357.41;;;-0.69;100.00
6345;BME280;3205;42.666;23.264;2024-01-30T05:47:27;96359.03;;;-0.75;100.00
6345;BME280;3205;42.666;23.264;2024-01-30T05:49:53;96346.38;;;-0.65;100.00
6345;BME280;3205;42.666;23.264;2024-01-30T05:52:19;96361.34;;;-0.67;100.00
6345;BME280;3205;42.666;23.264;2024-01-30T05:54:45;96351.06;;;-0.73;100.00
6345;BME280;3205;42.666;23.264;2024-01-30T05:57:12;96352.56;;;-0.66;100.00
6345;BME280;3205;42.666;23.264;2024-01-30T05:59:38;96346.00;;;-0.68;100.00
6345;BME280;3205;42.666;23.264;2024-01-30T06:02:04;96346.59;;;-0.66;100.00
6345;BME280;3205;42.666;23.264;2024-01-30T06:04:31;96347.16;;;-0.64;100.00
6345;BME280;3205;42.666;23.264;2024-01-30T06:06:58;96348.09;;;-0.59;100.00
6345;BME280;3205;42.666;23.264;2024-01-30T06:09:27;96350.34;;;-0.62;100.00
6345;BME280;3205;42.666;23.264;2024-01-30T06:11:53;96349.91;;;-0.59;100.00
6345;BME280;3205;42.666;23.264;2024-01-30T06:14:20;96352.06;;;-0.56;100.00
6345;BME280;3205;42.666;23.264;2024-01-30T06:16:46;96348.31;;;-0.60;100.00
6345;BME280;3205;42.666;23.264;2024-01-30T06:19:12;96358.84;;;-0.55;100.00
6345;BME280;3205;42.666;23.264;2024-01-30T06:21:39;96353.66;;;-0.55;100.00
6345;BME280;3205;42.666;23.264;2024-01-30T06:24:06;96353.06;;;-0.57;100.00
6345;BME280;3205;42.666;23.264;2024-01-30T06:26:32;96357.44;;;-0.51;100.00
6345;BME280;3205;42.666;23.264;2024-01-30T06:28:58;96362.03;;;-0.35;100.00
6345;BME280;3205;42.666;23.264;2024-01-30T06:31:25;96361.34;;;0.05;100.00
6345;BME280;3205;42.666;23.264;2024-01-30T06:33:51;96360.34;;;0.76;100.00
6345;BME280;3205;42.666;23.264;2024-01-30T06:36:17;96364.56;;;1.23;100.00
6345;BME280;3205;42.666;23.264;2024-01-30T06:38:44;96365.84;;;1.94;100.00
6345;BME280;3205;42.666;23.264;2024-01-30T06:41:10;96370.16;;;1.88;97.81
6345;BME280;3205;42.666;23.264;2024-01-30T06:43:37;96371.81;;;2.61;90.11
6345;BME280;3205;42.666;23.264;2024-01-30T06:46:03;96371.53;;;3.40;81.20
6345;BME280;3205;42.666;23.264;2024-01-30T06:48:29;96363.88;;;3.00;82.03
6345;BME280;3205;42.666;23.264;2024-01-30T06:50:57;96364.53;;;2.47;84.42
6345;BME280;3205;42.666;23.264;2024-01-30T06:53:23;96369.00;;;1.96;86.77
6345;BME280;3205;42.666;23.264;2024-01-30T06:55:52;96375.38;;;1.77;91.61
6345;BME280;3205;42.666;23.264;2024-01-30T06:58:18;96365.44;;;3.72;79.03
6345;BME280;3205;42.666;23.264;2024-01-30T07:00:44;96373.78;;;4.81;70.27
6345;BME280;3205;42.666;23.264;2024-01-30T07:03:11;96373.69;;;5.02;65.80
6345;BME280;3205;42.666;23.264;2024-01-30T07:05:40;96376.97;;;5.19;62.64
6345;BME280;3205;42.666;23.264;2024-01-30T07:08:06;96383.56;;;5.21;61.63
6345;BME280;3205;42.666;23.264;2024-01-30T07:10:33;96377.00;;;6.01;60.53
6345;BME280;3205;42.666;23.264;2024-01-30T07:13:01;96374.16;;;5.67;56.97
6345;BME280;3205;42.666;23.264;2024-01-30T07:15:27;96376.06;;;6.27;57.05
6345;BME280;3205;42.666;23.264;2024-01-30T07:17:54;96377.84;;;6.12;55.68
6345;BME280;3205;42.666;23.264;2024-01-30T07:20:20;96376.88;;;5.35;57.00
6345;BME280;3205;42.666;23.264;2024-01-30T07:22:46;96376.00;;;6.07;56.18
6345;BME280;3205;42.666;23.264;2024-01-30T07:25:13;96379.69;;;7.12;53.03
6345;BME280;3205;42.666;23.264;2024-01-30T07:27:39;96390.50;;;6.20;53.92
6345;BME280;3205;42.666;23.264;2024-01-30T07:30:07;96383.63;;;7.10;52.04
6345;BME280;3205;42.666;23.264;2024-01-30T07:32:34;96384.16;;;7.02;50.91
6345;BME280;3205;42.666;23.264;2024-01-30T07:35:00;96369.31;;;8.10;50.57
6345;BME280;3205;42.666;23.264;2024-01-30T07:37:26;96373.00;;;8.72;46.82
6345;BME280;3205;42.666;23.264;2024-01-30T07:39:54;96375.75;;;8.52;46.51
6345;BME280;3205;42.666;23.264;2024-01-30T07:42:20;96379.56;;;8.26;46.56
6345;BME280;3205;42.666;23.264;2024-01-30T07:44:46;96371.00;;;8.97;45.33
6345;BME280;3205;42.666;23.264;2024-01-30T07:47:13;96371.63;;;8.31;46.01
6345;BME280;3205;42.666;23.264;2024-01-30T07:49:40;96371.63;;;8.85;44.85
6345;BME280;3205;42.666;23.264;2024-01-30T07:52:06;96372.94;;;9.54;43.86
6345;BME280;3205;42.666;23.264;2024-01-30T07:54:32;96364.47;;;9.85;45.32
6345;BME280;3205;42.666;23.264;2024-01-30T07:56:59;96360.50;;;10.76;42.62
6345;BME280;3205;42.666;23.264;2024-01-30T07:59:25;96381.38;;;10.96;40.66
6345;BME280;3205;42.666;23.264;2024-01-30T08:01:51;96371.66;;;9.51;42.66
6345;BME280;3205;42.666;23.264;2024-01-30T08:04:19;96369.66;;;10.41;42.06
6345;BME280;3205;42.666;23.264;2024-01-30T08:06:45;96369.97;;;11.32;40.09
6345;BME280;3205;42.666;23.264;2024-01-30T08:09:11;96355.81;;;11.23;40.03
6345;BME280;3205;42.666;23.264;2024-01-30T08:11:37;96366.94;;;11.88;39.29
6345;BME280;3205;42.666;23.264;2024-01-30T08:14:03;96357.81;;;12.08;38.59
6345;BME280;3205;42.666;23.264;2024-01-30T08:16:30;96359.41;;;12.22;38.09
6345;BME280;3205;42.666;23.264;2024-01-30T08:18:56;96368.91;;;12.10;38.51
6345;BME280;3205;42.666;23.264;2024-01-30T08:21:23;96359.03;;;11.70;38.24
6345;BME280;3205;42.666;23.264;2024-01-30T08:23:50;96366.94;;;11.88;38.34
6345;BME280;3205;42.666;23.264;2024-01-30T08:26:16;96359.34;;;11.18;38.45
6345;BME280;3205;42.666;23.264;2024-01-30T08:28:42;96373.03;;;11.39;38.64
6345;BME280;3205;42.666;23.264;2024-01-30T08:31:10;96373.50;;;12.71;37.20
6345;BME280;3205;42.666;23.264;2024-01-30T08:33:36;96369.44;;;12.39;36.59
6345;BME280;3205;42.666;23.264;2024-01-30T08:36:03;96363.31;;;12.52;37.37
6345;BME280;3205;42.666;23.264;2024-01-30T08:38:30;96374.13;;;12.55;36.74
6345;BME280;3205;42.666;23.264;2024-01-30T08:40:56;96366.78;;;13.14;36.61
6345;BME280;3205;42.666;23.264;2024-01-30T08:43:22;96374.56;;;12.97;36.40
6345;BME280;3205;42.666;23.264;2024-01-30T08:45:49;96380.81;;;10.15;38.46
6345;BME280;3205;42.666;23.264;2024-01-30T08:48:15;96378.22;;;9.54;41.10
6345;BME280;3205;42.666;23.264;2024-01-30T08:50:43;96386.50;;;9.04;41.13
6345;BME280;3205;42.666;23.264;2024-01-30T08:53:09;96385.78;;;9.65;41.24
6345;BME280;3205;42.666;23.264;2024-01-30T08:55:36;96376.00;;;9.37;41.38
6345;BME280;3205;42.666;23.264;2024-01-30T08:58:03;96381.19;;;8.66;42.32
6345;BME280;3205;42.666;23.264;2024-01-30T09:00:30;96387.66;;;9.88;41.71
6345;BME280;3205;42.666;23.264;2024-01-30T09:02:56;96374.19;;;11.33;40.21
6345;BME280;3205;42.666;23.264;2024-01-30T09:05:23;96379.38;;;11.75;39.20
6345;BME280;3205;42.666;23.264;2024-01-30T09:07:49;96388.34;;;11.60;39.20
6345;BME280;3205;42.666;23.264;2024-01-30T09:10:15;96376.72;;;11.75;38.86
6345;BME280;3205;42.666;23.264;2024-01-30T09:12:42;96385.88;;;11.32;39.07
6345;BME280;3205;42.666;23.264;2024-01-30T09:15:09;96380.38;;;10.32;40.41
6345;BME280;3205;42.666;23.264;2024-01-30T09:17:36;96387.09;;;10.42;40.86
6345;BME280;3205;42.666;23.264;2024-01-30T09:20:02;96379.56;;;10.54;41.40
6345;BME280;3205;42.666;23.264;2024-01-30T09:22:29;96378.53;;;11.10;40.86
6345;BME280;3205;42.666;23.264;2024-01-30T09:24:55;96371.94;;;10.71;41.33
6345;BME280;3205;42.666;23.264;2024-01-30T09:27:21;96368.69;;;9.86;43.40
6345;BME280;3205;42.666;23.264;2024-01-30T09:29:48;96369.94;;;8.50;45.74
6345;BME280;3205;42.666;23.264;2024-01-30T09:32:15;96365.72;;;7.51;47.66
6345;BME280;3205;42.666;23.264;2024-01-30T09:34:41;96358.88;;;5.95;51.20
6345;BME280;3205;42.666;23.264;2024-01-30T09:37:07;96378.47;;;5.41;54.06
6345;BME280;3205;42.666;23.264;2024-01-30T09:39:33;96364.88;;;5.13;55.60
6345;BME280;3205;42.666;23.264;2024-01-30T09:42:05;96366.97;;;4.32;58.74
6345;BME280;3205;42.666;23.264;2024-01-30T09:44:34;96356.97;;;4.03;60.32
6345;BME280;3205;42.666;23.264;2024-01-30T09:47:02;96363.25;;;3.64;63.48
6345;BME280;3205;42.666;23.264;2024-01-30T09:49:30;96363.78;;;3.28;67.98
6345;BME280;3205;42.666;23.264;2024-01-30T09:51:58;96349.22;;;3.16;69.86
6345;BME280;3205;42.666;23.264;2024-01-30T09:54:24;96347.31;;;3.11;73.22
6345;BME280;3205;42.666;23.264;2024-01-30T09:56:50;96351.84;;;3.16;73.46
6345;BME280;3205;42.666;23.264;2024-01-30T09:59:17;96351.97;;;3.09;73.64
6345;BME280;3205;42.666;23.264;2024-01-30T10:01:43;96358.78;;;2.78;77.02
6345;BME280;3205;42.666;23.264;2024-01-30T10:04:10;96351.13;;;3.04;77.04
6345;BME280;3205;42.666;23.264;2024-01-30T10:06:37;96355.31;;;3.21;74.76
6345;BME280;3205;42.666;23.264;2024-01-30T10:09:04;96355.16;;;3.11;74.13
6345;BME280;3205;42.666;23.264;2024-01-30T10:11:30;96344.88;;;3.05;76.94
6345;BME280;3205;42.666;23.264;2024-01-30T10:13:56;96338.47;;;3.12;77.02
6345;BME280;3205;42.666;23.264;2024-01-30T10:16:23;96339.78;;;3.31;76.89
6345;BME280;3205;42.666;23.264;2024-01-30T10:18:50;96336.09;;;3.11;74.99
6345;BME280;3205;42.666;23.264;2024-01-30T10:21:17;96335.84;;;3.12;75.85
6345;BME280;3205;42.666;23.264;2024-01-30T10:23:44;96336.63;;;3.13;77.26
6345;BME280;3205;42.666;23.264;2024-01-30T10:26:10;96339.56;;;3.16;77.69
6345;BME280;3205;42.666;23.264;2024-01-30T10:28:37;96340.75;;;3.09;77.62
6345;BME280;3205;42.666;23.264;2024-01-30T10:31:03;96338.53;;;3.01;77.44
6345;BME280;3205;42.666;23.264;2024-01-30T10:33:32;96338.75;;;3.32;77.29
6345;BME280;3205;42.666;23.264;2024-01-30T10:36:03;96341.69;;;3.36;74.04
6345;BME280;3205;42.666;23.264;2024-01-30T10:38:31;96329.81;;;3.28;77.75
6345;BME280;3205;42.666;23.264;2024-01-30T10:40:58;96338.97;;;3.47;73.30
6345;BME280;3205;42.666;23.264;2024-01-30T10:43:31;96345.50;;;3.66;71.85
6345;BME280;3205;42.666;23.264;2024-01-30T10:46:03;96333.91;;;3.78;71.78
6345;BME280;3205;42.666;23.264;2024-01-30T10:48:36;96327.78;;;3.52;69.93
6345;BME280;3205;42.666;23.264;2024-01-30T10:51:05;96335.91;;;2.68;74.18
6345;BME280;3205;42.666;23.264;2024-01-30T10:53:33;96327.44;;;2.61;79.82
6345;BME280;3205;42.666;23.264;2024-01-30T10:56:01;96319.78;;;2.88;79.76
6345;BME280;3205;42.666;23.264;2024-01-30T10:58:29;96323.03;;;2.94;77.75
6345;BME280;3205;42.666;23.264;2024-01-30T11:00:55;96309.88;;;2.90;79.20
6345;BME280;3205;42.666;23.264;2024-01-30T11:03:25;96309.88;;;2.90;78.41
6345;BME280;3205;42.666;23.264;2024-01-30T11:05:52;96305.78;;;2.77;78.10
6345;BME280;3205;42.666;23.264;2024-01-30T11:08:23;96305.78;;;2.93;78.32
6345;BME280;3205;42.666;23.264;2024-01-30T11:10:55;96315.28;;;2.99;79.77
6345;BME280;3205;42.666;23.264;2024-01-30T11:13:22;96301.81;;;2.75;79.63
6345;BME280;3205;42.666;23.264;2024-01-30T11:15:52;96291.59;;;2.73;80.48
6345;BME280;3205;42.666;23.264;2024-01-30T11:18:29;96311.91;;;2.55;81.10
6345;BME280;3205;42.666;23.264;2024-01-30T11:20:56;96298.09;;;2.87;81.90
6345;BME280;3205;42.666;23.264;2024-01-30T11:23:22;96290.34;;;3.08;79.45
6345;BME280;3205;42.666;23.264;2024-01-30T11:25:49;96299.09;;;3.19;77.67
6345;BME280;3205;42.666;23.264;2024-01-30T11:28:16;96290.59;;;3.45;76.90
6345;BME280;3205;42.666;23.264;2024-01-30T11:30:43;96298.16;;;3.25;76.59
6345;BME280;3205;42.666;23.264;2024-01-30T11:33:10;96290.88;;;3.10;78.53
6345;BME280;3205;42.666;23.264;2024-01-30T11:35:38;96292.38;;;3.44;79.55
6345;BME280;3205;42.666;23.264;2024-01-30T11:38:06;96301.72;;;3.78;78.33
6345;BME280;3205;42.666;23.264;2024-01-30T11:40:33;96308.63;;;3.08;76.33
6345;BME280;3205;42.666;23.264;2024-01-30T11:43:01;96306.69;;;2.55;81.23
6345;BME280;3205;42.666;23.264;2024-01-30T11:45:29;96302.91;;;2.95;81.24
6345;BME280;3205;42.666;23.264;2024-01-30T11:47:55;96302.94;;;2.79;80.83
6345;BME280;3205;42.666;23.264;2024-01-30T11:50:23;96293.94;;;3.24;79.79
6345;BME280;3205;42.666;23.264;2024-01-30T11:52:49;96291.81;;;3.80;74.99
6345;BME280;3205;42.666;23.264;2024-01-30T11:55:15;96295.59;;;4.15;71.47
6345;BME280;3205;42.666;23.264;2024-01-30T11:57:41;96287.41;;;4.07;71.92
6345;BME280;3205;42.666;23.264;2024-01-30T12:00:14;96269.44;;;4.15;72.07
6345;BME280;3205;42.666;23.264;2024-01-30T12:02:42;96277.28;;;3.89;70.33
6345;BME280;3205;42.666;23.264;2024-01-30T12:05:08;96269.41;;;3.46;73.86
6345;BME280;3205;42.666;23.264;2024-01-30T12:07:35;96270.13;;;3.63;72.88
6345;BME280;3205;42.666;23.264;2024-01-30T12:10:02;96268.34;;;3.42;74.11
6345;BME280;3205;42.666;23.264;2024-01-30T12:12:29;96259.69;;;3.04;76.34
6345;BME280;3205;42.666;23.264;2024-01-30T12:14:56;96255.06;;;2.73;79.58
6345;BME280;3205;42.666;23.264;2024-01-30T12:17:28;96254.72;;;2.86;81.06
6345;BME280;3205;42.666;23.264;2024-01-30T12:20:05;96249.88;;;3.11;81.92
6345;BME280;3205;42.666;23.264;2024-01-30T12:22:33;96248.53;;;3.08;79.93
6345;BME280;3205;42.666;23.264;2024-01-30T12:25:02;96251.25;;;2.97;83.11
6345;BME280;3205;42.666;23.264;2024-01-30T12:27:29;96246.72;;;2.92;83.46
6345;BME280;3205;42.666;23.264;2024-01-30T12:29:56;96234.19;;;3.11;83.13
6345;BME280;3205;42.666;23.264;2024-01-30T12:32:23;96231.28;;;3.07;81.23
6345;BME280;3205;42.666;23.264;2024-01-30T12:34:49;96237.06;;;2.93;81.07
6345;BME280;3205;42.666;23.264;2024-01-30T12:37:16;96235.78;;;2.95;84.09
6345;BME280;3205;42.666;23.264;2024-01-30T12:39:47;96228.47;;;2.92;83.53
6345;BME280;3205;42.666;23.264;2024-01-30T12:42:13;96230.44;;;2.86;84.63
6345;BME280;3205;42.666;23.264;2024-01-30T12:44:40;96229.31;;;2.82;84.89
6345;BME280;3205;42.666;23.264;2024-01-30T12:47:08;96221.31;;;3.04;84.13
6345;BME280;3205;42.666;23.264;2024-01-30T12:49:35;96231.41;;;3.17;82.41
6345;BME280;3205;42.666;23.264;2024-01-30T12:52:01;96227.50;;;2.98;81.96
6345;BME280;3205;42.666;23.264;2024-01-30T12:54:29;96213.63;;;3.14;82.38
6345;BME280;3205;42.666;23.264;2024-01-30T12:56:55;96217.56;;;3.17;81.33
6345;BME280;3205;42.666;23.264;2024-01-30T12:59:24;96222.44;;;2.76;81.73
6345;BME280;3205;42.666;23.264;2024-01-30T13:01:50;96203.00;;;2.67;85.89
6345;BME280;3205;42.666;23.264;2024-01-30T13:04:17;96209.94;;;2.78;84.28
6345;BME280;3205;42.666;23.264;2024-01-30T13:06:43;96203.97;;;2.77;85.20
6345;BME280;3205;42.666;23.264;2024-01-30T13:09:09;96201.03;;;2.74;85.39